メインページ
METAR-TAF:

METAR-TAF

空港 :

東京国際空港

東京 / 羽田国際空港, 日本

緯度: 35-33N, 経度: 139-47E, 海抜: 5m

現時点の気象観測

当レポートは30分前の11:30(UTC)に作成
南東の風 8kt
気温 16°C
湿度 51%
気圧 1020 hPa
視程10km以上
1,500メートル以下は雲なし、積乱雲なし

METAR: RJTT 201130Z 14008KT CAVOK 16/06 Q1020 NOSIG RMK A3014

時間: 21:00 (12:00 UTC)

予報

当レポートは52分前の11:08(UTC)に作成
予報は20日の 12時(UTC)から 21日の 18時(UTC)まで有効
の風 8kt
視程10km以上
高度3000ftの雲はほとんどない
20日の 17時(UTC)から 20日の 19時(UTC)まで徐々に
北/北西の風 6kt
21日の 00時(UTC)から 21日の 03時(UTC)まで徐々に
の風 8kt

TAF: RJTT 201108Z 2012/2118 18008KT 9999 FEW030 BECMG 2017/2019 34006KT BECMG 2100/2103 08008KT

4,000以上の空港の気象観測と天気予報(METAR報とTAF報)

利用可能な観測所は地図上に黄色い丸と赤い丸で示す。

丸の上にカーソルを重ねると観測所名を参照できる。

次にクリックすると気象観測と天気予報を参照できる。

マップの切り替え:黒色「×」印の緑ボタンをクリックして拡大、「-」印の緑ボタンをクリックして縮小、緑色の三角印をクリックして隣りの地図に切り替え


METAR-TAF: